Bei Facebook empfehlenBei Twitter postenGoogle plusPinterest

Das Wetter im Erzgebirge am 13.04.2015

Wetter und Klima am 13.04.2015 Holzhau im Erzgebirge (630m ü.NN)
Letzte gemessene Temperatur und Uhrzeit der Messung23:45:00 Uhr-2.10 °C
Temperatur (Maximum / Höchstwert) und Uhrzeit der Messung16:00:00 Uhr9.90 °C
Temperatur (Minimum / Tiefstwert) und Uhrzeit der Messung23:45:00-2.10 °C
Errechneter Absolutwert der Temperaturschwankungen zwischen Tmin und Tmax des Tages12.00 K
Errechnete Tagesmitteltemperatur5.83854 °C
Gesamt - Niederschlag des Tages (in flüssiger Form)0.00 Liter / m²
Luftdruck (Maximum / Höchstwert) und Zeitpunkt der Messung21:30:00 Uhr1025.30 hPa
Luftdruck (Minimum / Tiefstwert) und Zeitpunkt der Messung05:00:00 Uhr1020.00 hPa
Errechneter Absolutwert der Luftdruckschwankungen des Tages5.30 hPa
Höchste gemessene Windgeschwindigkeit und Uhrzeit der Messung09:15:00 Uhr15.84 km/h
Errechnete Windhäufigkeit in Relation zu den Messwerten des Tages27.08333 %
Niedrigste Windkühle (Windchill) und Zeitpunkt der Messung23:45:00 Uhr-2.10 °C
Taupunkt (Maximum / Höchstwert) und Uhrzeit der Messung02:15:00 Uhr5.10 °C
Taupunkt (Minimum / Tiefstwert) und Uhrzeit der Messung23:15:00-5.00 °C
Anzahl der automatisch eingelesenen Messwerte 96

Detaillierte Wetter- und Klima- Messwerte für den 13.04.2015 in Holzhau im Erzgebirge (630m ü.NN)
ZeitTemperaturLuftdruckRel. LuftfeuchteWindWindrichtungWindchillTaupunktNiederschlag l/m²
23:45:00-2.10 °C1025.00 hPa83.00 %-4.90 °C 
23:30:00-1.90 °C1024.90 hPa82.00 %-4.90 °C 
23:15:00-1.80 °C1025.10 hPa81.00 %-5.00 °C 
23:00:00-1.50 °C1024.90 hPa81.00 %-4.70 °C 
22:45:00-1.30 °C1025.10 hPa80.00 %-4.70 °C 
22:30:00-0.80 °C1025.10 hPa79.00 %-4.40 °C 
22:15:00-0.70 °C1025.10 hPa77.00 %-4.60 °C 
22:00:00-0.20 °C1025.00 hPa75.00 %-4.50 °C 
21:45:000.40 °C1025.00 hPa73.00 %-3.90 °C 
21:30:001.10 °C1025.30 hPa72.00 %-3.40 °C 
21:15:001.80 °C1025.00 hPa70.00 %-3.10 °C 
21:00:002.50 °C1025.10 hPa68.00 %-2.80 °C 
20:45:003.00 °C1024.90 hPa67.00 %-2.50 °C 
20:30:003.50 °C1024.60 hPa66.00 %-2.20 °C 
20:15:003.90 °C1024.70 hPa65.00 %-2.10 °C 
20:00:004.50 °C1024.80 hPa64.00 %-1.70 °C 
19:45:004.90 °C1024.70 hPa63.00 %-1.50 °C 
19:30:005.40 °C1024.60 hPa62.00 %-1.30 °C 
19:15:005.90 °C1024.70 hPa60.00 %-1.30 °C 
19:00:006.40 °C1024.50 hPa59.00 %3.96 km/hWNW6.40 °C-1.00 °C 
18:45:007.10 °C1024.40 hPa58.00 %-0.60 °C 
18:30:007.60 °C1024.50 hPa56.00 %-0.60 °C 
18:15:008.10 °C1024.50 hPa56.00 %-0.10 °C 
18:00:008.60 °C1024.40 hPa55.00 %0.10 °C 
17:45:008.80 °C1024.10 hPa56.00 %0.50 °C 
17:30:008.80 °C1024.10 hPa55.00 %0.30 °C 
17:15:008.90 °C1024.20 hPa53.00 %-0.10 °C 
17:00:009.30 °C1024.30 hPa53.00 %0.20 °C 
16:45:009.30 °C1024.30 hPa52.00 %0.00 °C 
16:30:009.40 °C1024.30 hPa52.00 %0.10 °C 
16:15:009.80 °C1024.30 hPa51.00 %5.04 km/hWNW9.50 °C0.20 °C 
16:00:009.90 °C1024.30 hPa49.00 %-0.30 °C 
15:45:009.60 °C1024.20 hPa51.00 %9.36 km/hWNW8.30 °C0.00 °C 
15:30:009.40 °C1024.30 hPa52.00 %11.88 km/hWNW7.60 °C0.10 °C 
15:15:009.20 °C1024.60 hPa53.00 %8.28 km/hNW8.00 °C0.10 °C 
15:00:009.30 °C1024.40 hPa51.00 %9.00 km/hNNW8.00 °C-0.30 °C 
14:45:009.60 °C1024.60 hPa51.00 %3.96 km/hNW9.60 °C0.00 °C 
14:30:009.40 °C1024.50 hPa54.00 %7.20 km/hWNW8.50 °C0.60 °C 
14:15:008.90 °C1024.80 hPa55.00 %0.40 °C 
14:00:008.80 °C1024.60 hPa56.00 %7.20 km/hWNW7.80 °C0.50 °C 
13:45:008.80 °C1024.40 hPa58.00 %12.60 km/hNNW6.80 °C1.00 °C 
13:30:008.20 °C1024.40 hPa58.00 %6.84 km/hWNW7.20 °C0.40 °C 
13:15:008.30 °C1024.40 hPa60.00 %7.56 km/hWNW7.10 °C1.00 °C 
13:00:008.20 °C1024.60 hPa62.00 %1.08 km/hWNW8.20 °C1.40 °C 
12:45:007.90 °C1024.60 hPa65.00 %1.70 °C 
12:30:007.50 °C1024.30 hPa69.00 %8.28 km/hNW6.00 °C2.20 °C 
12:15:006.80 °C1024.40 hPa70.00 %1.70 °C 
12:00:006.90 °C1024.40 hPa75.00 %4.32 km/hNNW6.90 °C2.80 °C 
11:45:006.20 °C1024.30 hPa78.00 %2.70 °C 
11:30:005.40 °C1024.20 hPa81.00 %6.12 km/hWSW4.10 °C2.40 °C 
11:15:004.90 °C1024.20 hPa83.00 %7.92 km/hWNW3.00 °C2.30 °C 
11:00:004.40 °C1023.90 hPa85.00 %2.10 °C 
10:45:004.20 °C1023.70 hPa85.00 %1.90 °C 
10:30:004.10 °C1023.30 hPa85.00 %1.80 °C 
10:15:003.90 °C1023.10 hPa87.00 %10.08 km/hWNW1.30 °C1.90 °C 
10:00:003.60 °C1023.00 hPa88.00 %1.80 °C 
09:45:003.60 °C1022.70 hPa87.00 %1.60 °C 
09:30:003.80 °C1022.50 hPa86.00 %3.96 km/hNW3.80 °C1.70 °C 
09:15:004.10 °C1022.60 hPa85.00 %15.84 km/hWNW0.50 °C1.80 °C 
09:00:004.90 °C1022.40 hPa85.00 %2.60 °C 
08:45:005.90 °C1021.90 hPa81.00 %2.90 °C 
08:30:007.40 °C1021.60 hPa77.00 %5.04 km/hNW6.80 °C3.60 °C 
08:15:008.50 °C1020.60 hPa76.00 %4.50 °C 
08:00:008.60 °C1020.40 hPa76.00 %4.60 °C 
07:45:008.50 °C1020.30 hPa76.00 %3.96 km/hWNW8.50 °C4.50 °C 
07:30:008.40 °C1020.20 hPa77.00 %10.08 km/hWSW6.70 °C4.60 °C 
07:15:008.10 °C1020.10 hPa77.00 %4.68 km/hW8.10 °C4.30 °C 
07:00:007.80 °C1020.10 hPa78.00 %4.20 °C 
06:45:007.40 °C1020.10 hPa78.00 %3.80 °C 
06:30:006.90 °C1020.20 hPa78.00 %3.30 °C 
06:15:007.10 °C1020.20 hPa77.00 %3.30 °C 
06:00:007.30 °C1020.20 hPa77.00 %3.50 °C 
05:45:007.50 °C1020.20 hPa77.00 %3.70 °C 
05:30:007.50 °C1020.20 hPa77.00 %8.28 km/hWNW6.00 °C3.70 °C 
05:15:007.60 °C1020.30 hPa76.00 %3.60 °C 
05:00:007.80 °C1020.00 hPa76.00 %3.80 °C 
04:45:008.00 °C1020.00 hPa76.00 %4.00 °C 
04:30:007.90 °C1020.20 hPa77.00 %4.10 °C 
04:15:007.90 °C1020.40 hPa78.00 %4.30 °C 
04:00:007.80 °C1020.50 hPa80.00 %7.92 km/hW6.40 °C4.60 °C 
03:45:007.40 °C1020.50 hPa81.00 %4.40 °C 
03:30:007.30 °C1020.50 hPa81.00 %4.30 °C 
03:15:007.40 °C1020.50 hPa81.00 %4.40 °C 
03:00:007.50 °C1020.70 hPa82.00 %4.60 °C 
02:45:007.30 °C1020.60 hPa83.00 %4.60 °C 
02:30:007.30 °C1020.80 hPa85.00 %5.00 °C 
02:15:006.90 °C1020.90 hPa88.00 %5.10 °C 
02:00:006.10 °C1021.20 hPa90.00 %4.60 °C 
01:45:004.90 °C1021.30 hPa90.00 %3.40 °C 
01:30:002.70 °C1021.50 hPa90.00 %1.20 °C 
01:15:001.90 °C1021.70 hPa89.00 %0.30 °C 
01:00:002.10 °C1021.80 hPa89.00 %0.50 °C 
00:45:002.20 °C1022.00 hPa88.00 %0.40 °C 
00:30:002.30 °C1022.00 hPa88.00 %0.50 °C 
00:15:002.40 °C1022.30 hPa88.00 %0.60 °C 
00:00:002.40 °C1022.40 hPa88.00 %0.60 °C 

Permanenter Link zu dieser Seite: Wetter im Erzgebirge am 13.04.2015
Performance-Info: Die Erstellung der Seite / Statistik(en) / Tabelle(n) erforderte 5 Datenbankserver-Abfrage(n) und dauerte 98 Millisekunden. (Dieser Messwert ist von der Gesamt-Auslastung des Servers abhängig.)
Erzgebirge - Wetter | Erzgebirge - Wetter (Mobilgeräte) | Komplette Klimadatenbank